Terminal Aerodrome Forecast
Issued by NWS Cleveland, OH

Home | Current Version | Previous Version | Text Only | Print | Product List | Glossary Off
Versions: 1 2 3 4 5 6 7 8 9 10 11 12 13 14 15 16 17 18 19 20 21 22

000
FTUS41 KCLE 181000 AAA
TAFMFD
TAF AMD
KMFD 181008Z 1810/1906 09004KT P6SM OVC050
     FM182000 05005KT P6SM VCSH OVC050
     FM182300 05004KT 6SM HZ BKN250
     FM190300 VRB03KT 4SM BR BKN250=

USA.gov is the U.S. government's official web portal to all federal, state and local government web resources and services.